Time;durP1;ratioP1;P1;durP2;ratioP2;P2;SDS_P1;SDS_P2;PMS_P1;PMS_P2;Temp;Humidity;BMP_temperature;BMP_pressure;BME280_temperature;BME280_humidity;BME280_pressure;Samples;Min_cycle;Max_cycle;Signal;HPM_P1;HPM_P2
2021/10/23 00:00:53;;;;;;;22.73;9.17;;;;;;;;;;353407;150;858356;-62
2021/10/23 00:01:55;;;;;;;19.49;9.28;;;;;;;;;;355341;148;864928;-61
2021/10/23 00:02:56;;;;;;;23.69;9.42;;;;;;;;;;355524;148;857400;-62
2021/10/23 00:03:58;;;;;;;24.05;9.39;;;;;;;;;;359040;150;864854;-62
2021/10/23 00:04:59;;;;;;;20.21;9.64;;;;;;;;;;359060;149;857218;-62
2021/10/23 00:06:01;;;;;;;20.14;9.27;;;;;;;;;;353753;148;866688;-62
2021/10/23 00:07:03;;;;;;;18.58;8.89;;;;;;;;;;357978;148;860244;-61
2021/10/23 00:08:04;;;;;;;22.21;9.05;;;;;;;;;;353984;149;865587;-62
2021/10/23 00:09:06;;;;;;;18.46;9.10;;;;;;;;;;354183;148;858241;-61
2021/10/23 00:10:08;;;;;;;22.72;8.97;;;;;;;;;;356874;148;864905;-62
2021/10/23 00:11:12;;;;;;;19.41;8.66;;;;;;;;;;357205;150;858934;-62
2021/10/23 00:12:13;;;;;;;21.00;8.79;;;;;;;;;;354039;148;857236;-62
2021/10/23 00:13:15;;;;;;;22.98;9.38;;;;;;;;;;356568;148;857875;-61
2021/10/23 00:14:16;;;;;;;20.59;9.72;;;;;;;;;;356235;148;862520;-62
2021/10/23 00:15:18;;;;;;;19.19;8.92;;;;;;;;;;356069;150;857298;-62
2021/10/23 00:16:20;;;;;;;18.14;8.77;;;;;;;;;;355637;148;857342;-62
2021/10/23 00:17:22;;;;;;;22.66;9.05;;;;;;;;;;355975;148;857110;-61
2021/10/23 00:18:23;;;;;;;19.88;9.42;;;;;;;;;;357193;150;864911;-61
2021/10/23 00:19:25;;;;;;;19.20;8.99;;;;;;;;;;359026;150;857215;-61
2021/10/23 00:20:27;;;;;;;22.14;9.10;;;;;;;;;;354320;149;857190;-62
2021/10/23 00:21:29;;;;;;;23.80;8.51;;;;;;;;;;357381;148;859383;-61
2021/10/23 00:22:31;;;;;;;18.72;8.66;;;;;;;;;;353435;150;858190;-62
2021/10/23 00:23:32;;;;;;;21.97;10.01;;;;;;;;;;354152;148;864866;-62
2021/10/23 00:24:34;;;;;;;19.72;8.56;;;;;;;;;;356686;148;864556;-61
2021/10/23 00:25:35;;;;;;;20.75;8.96;;;;;;;;;;355694;150;857242;-62
2021/10/23 00:26:37;;;;;;;19.68;9.19;;;;;;;;;;353827;148;857266;-62
2021/10/23 00:27:39;;;;;;;21.36;9.23;;;;;;;;;;352868;148;864969;-62
2021/10/23 00:28:40;;;;;;;18.49;8.82;;;;;;;;;;357273;148;866846;-61
2021/10/23 00:29:42;;;;;;;15.64;8.51;;;;;;;;;;356743;150;857108;-62
2021/10/23 00:30:44;;;;;;;17.91;8.01;;;;;;;;;;355060;148;865435;-62
2021/10/23 00:31:45;;;;;;;17.91;8.71;;;;;;;;;;356553;148;864957;-61
2021/10/23 00:32:47;;;;;;;20.84;8.36;;;;;;;;;;359691;148;857286;-61
2021/10/23 00:33:49;;;;;;;19.41;8.61;;;;;;;;;;354195;148;859051;-61
2021/10/23 00:34:50;;;;;;;16.94;8.31;;;;;;;;;;354827;149;858236;-62
2021/10/23 00:35:52;;;;;;;17.45;8.01;;;;;;;;;;358703;148;865637;-62
2021/10/23 00:36:53;;;;;;;15.09;7.84;;;;;;;;;;354547;150;865157;-61
2021/10/23 00:37:55;;;;;;;17.24;8.11;;;;;;;;;;361001;147;857602;-62
2021/10/23 00:38:56;;;;;;;23.68;8.81;;;;;;;;;;358943;147;865053;-62
2021/10/23 00:39:58;;;;;;;20.31;8.94;;;;;;;;;;359808;147;866537;-62
2021/10/23 00:41:00;;;;;;;17.55;8.26;;;;;;;;;;361492;148;865627;-61
2021/10/23 00:42:02;;;;;;;21.48;8.44;;;;;;;;;;358787;147;866568;-62
2021/10/23 00:43:04;;;;;;;15.40;8.47;;;;;;;;;;362321;147;864871;-61
2021/10/23 00:44:05;;;;;;;18.61;8.86;;;;;;;;;;359923;146;857133;-61
2021/10/23 00:45:08;;;;;;;17.31;7.92;;;;;;;;;;357815;148;865634;-61
2021/10/23 00:46:09;;;;;;;17.98;8.45;;;;;;;;;;358262;147;858543;-62
2021/10/23 00:47:12;;;;;;;20.78;8.87;;;;;;;;;;356596;148;858531;-62
2021/10/23 00:48:14;;;;;;;19.07;8.41;;;;;;;;;;355760;146;864446;-61
2021/10/23 00:49:16;;;;;;;16.77;8.39;;;;;;;;;;360359;146;857579;-62
2021/10/23 00:50:18;;;;;;;16.54;7.39;;;;;;;;;;360776;147;857283;-62
2021/10/23 00:51:20;;;;;;;16.65;7.99;;;;;;;;;;357454;146;864954;-62
2021/10/23 00:52:22;;;;;;;23.57;8.41;;;;;;;;;;359939;146;857319;-62
2021/10/23 00:53:24;;;;;;;18.55;8.67;;;;;;;;;;359023;147;857283;-62
2021/10/23 00:54:29;;;;;;;20.38;8.02;;;;;;;;;;361099;146;857177;-61
2021/10/23 00:55:30;;;;;;;17.94;8.27;;;;;;;;;;359114;148;866571;-61
2021/10/23 00:56:32;;;;;;;17.38;8.16;;;;;;;;;;361148;145;857646;-62
2021/10/23 00:57:33;;;;;;;15.17;7.71;;;;;;;;;;360185;147;865060;-61
2021/10/23 00:58:35;;;;;;;18.21;9.15;;;;;;;;;;357881;148;857277;-61
2021/10/23 00:59:37;;;;;;;19.00;7.71;;;;;;;;;;358114;147;864950;-61
2021/10/23 01:00:38;;;;;;;19.29;8.14;;;;;;;;;;352269;149;865666;-62
2021/10/23 01:01:40;;;;;;;21.51;8.31;;;;;;;;;;360632;147;866854;-61
2021/10/23 01:02:41;;;;;;;21.64;9.36;;;;;;;;;;358738;148;859236;-61
2021/10/23 01:03:43;;;;;;;18.49;8.41;;;;;;;;;;358784;147;857779;-61
2021/10/23 01:04:45;;;;;;;19.89;8.49;;;;;;;;;;359713;147;864934;-62
2021/10/23 01:05:46;;;;;;;21.43;8.15;;;;;;;;;;358190;147;857264;-62
2021/10/23 01:06:48;;;;;;;17.71;8.41;;;;;;;;;;360297;147;858998;-61
2021/10/23 01:07:50;;;;;;;20.67;8.32;;;;;;;;;;358569;147;866065;-61
2021/10/23 01:08:51;;;;;;;18.03;8.37;;;;;;;;;;357351;147;858935;-61
2021/10/23 01:09:53;;;;;;;20.21;9.01;;;;;;;;;;357647;148;860015;-62
2021/10/23 01:10:54;;;;;;;20.33;8.31;;;;;;;;;;360397;147;861174;-62
2021/10/23 01:11:56;;;;;;;18.34;8.54;;;;;;;;;;359689;147;866184;-62
2021/10/23 01:12:58;;;;;;;20.46;8.27;;;;;;;;;;357007;147;858897;-62
2021/10/23 01:14:00;;;;;;;18.83;8.14;;;;;;;;;;358039;147;865869;-62
2021/10/23 01:15:03;;;;;;;18.26;7.89;;;;;;;;;;357846;147;857308;-62
2021/10/23 01:16:05;;;;;;;21.52;8.94;;;;;;;;;;356116;148;864909;-62
2021/10/23 01:17:06;;;;;;;19.37;8.29;;;;;;;;;;358586;148;857909;-62
2021/10/23 01:18:09;;;;;;;21.67;8.61;;;;;;;;;;359347;146;864974;-61
2021/10/23 01:19:11;;;;;;;16.86;7.91;;;;;;;;;;362235;147;864488;-62
2021/10/23 01:20:13;;;;;;;15.70;7.64;;;;;;;;;;358052;147;857129;-62
2021/10/23 01:21:22;;;;;;;17.95;7.71;;;;;;;;;;360496;147;865312;-61
2021/10/23 01:22:26;;;;;;;18.46;7.67;;;;;;;;;;359993;147;858197;-62
2021/10/23 01:23:28;;;;;;;18.05;7.69;;;;;;;;;;358502;148;857860;-61
2021/10/23 01:24:29;;;;;;;14.46;7.24;;;;;;;;;;360739;147;865963;-61
2021/10/23 01:25:31;;;;;;;15.96;7.64;;;;;;;;;;359144;147;864065;-61
2021/10/23 01:26:32;;;;;;;20.71;8.20;;;;;;;;;;357381;147;864850;-62
2021/10/23 01:27:34;;;;;;;16.47;7.76;;;;;;;;;;357197;147;865459;-62
2021/10/23 01:28:35;;;;;;;18.86;7.68;;;;;;;;;;360634;147;865183;-61
2021/10/23 01:29:37;;;;;;;15.35;7.75;;;;;;;;;;359156;147;861695;-61
2021/10/23 01:30:39;;;;;;;18.31;8.08;;;;;;;;;;361131;148;865562;-61
2021/10/23 01:31:41;;;;;;;16.67;8.09;;;;;;;;;;362094;148;858220;-62
2021/10/23 01:32:42;;;;;;;16.99;7.47;;;;;;;;;;357644;147;857678;-61
2021/10/23 01:33:44;;;;;;;17.36;8.25;;;;;;;;;;359917;147;857392;-61
2021/10/23 01:34:46;;;;;;;19.64;7.56;;;;;;;;;;362073;146;858707;-62
2021/10/23 01:35:48;;;;;;;15.96;7.49;;;;;;;;;;358040;147;864946;-61
2021/10/23 01:36:51;;;;;;;16.00;7.37;;;;;;;;;;358985;147;857017;-61
2021/10/23 01:37:54;;;;;;;16.29;7.09;;;;;;;;;;359403;148;857219;-61
2021/10/23 01:38:56;;;;;;;13.45;7.17;;;;;;;;;;361583;147;857209;-61
2021/10/23 01:39:58;;;;;;;18.98;8.39;;;;;;;;;;359268;147;858859;-61
2021/10/23 01:40:59;;;;;;;16.86;7.50;;;;;;;;;;357397;147;864970;-61
2021/10/23 01:42:01;;;;;;;16.30;7.71;;;;;;;;;;360502;146;865013;-61
2021/10/23 01:43:03;;;;;;;16.07;7.31;;;;;;;;;;358982;147;866654;-61
2021/10/23 01:44:08;;;;;;;17.33;7.02;;;;;;;;;;360313;147;857184;-61
2021/10/23 01:45:10;;;;;;;15.98;7.02;;;;;;;;;;358535;147;857934;-61
2021/10/23 01:46:12;;;;;;;19.87;7.66;;;;;;;;;;356631;148;859052;-61
2021/10/23 01:47:13;;;;;;;15.63;6.98;;;;;;;;;;361005;147;857134;-62
2021/10/23 01:48:15;;;;;;;18.02;8.18;;;;;;;;;;359160;147;865059;-61
2021/10/23 01:49:17;;;;;;;15.82;7.44;;;;;;;;;;359250;148;866796;-61
2021/10/23 01:50:21;;;;;;;13.68;6.70;;;;;;;;;;359461;147;865793;-61
2021/10/23 01:51:22;;;;;;;18.78;7.49;;;;;;;;;;360226;147;857693;-67
2021/10/23 01:52:24;;;;;;;12.74;6.59;;;;;;;;;;361769;146;864992;-61
2021/10/23 01:53:26;;;;;;;18.16;7.24;;;;;;;;;;360628;147;857389;-61
2021/10/23 01:54:27;;;;;;;15.89;7.36;;;;;;;;;;359831;148;859416;-62
2021/10/23 01:55:29;;;;;;;15.20;6.89;;;;;;;;;;358993;147;859455;-62
2021/10/23 01:56:31;;;;;;;15.88;7.25;;;;;;;;;;360660;147;859863;-61
2021/10/23 01:57:33;;;;;;;18.33;7.02;;;;;;;;;;362661;147;857672;-62
2021/10/23 01:58:34;;;;;;;18.34;7.41;;;;;;;;;;359085;147;857777;-62
2021/10/23 01:59:36;;;;;;;16.68;7.17;;;;;;;;;;360193;147;866762;-62
2021/10/23 02:00:38;;;;;;;15.01;7.39;;;;;;;;;;359112;147;865528;-61
2021/10/23 02:01:39;;;;;;;14.62;8.61;;;;;;;;;;360225;147;865261;-62
2021/10/23 02:02:41;;;;;;;17.15;7.58;;;;;;;;;;360786;147;857273;-61
2021/10/23 02:03:43;;;;;;;13.09;6.64;;;;;;;;;;359479;148;864872;-61
2021/10/23 02:04:44;;;;;;;15.94;7.06;;;;;;;;;;358108;148;865013;-62
2021/10/23 02:05:46;;;;;;;15.65;7.31;;;;;;;;;;356634;147;865057;-62
2021/10/23 02:06:48;;;;;;;16.16;6.81;;;;;;;;;;358595;147;857548;-62
2021/10/23 02:07:49;;;;;;;14.78;7.11;;;;;;;;;;357221;148;866391;-62
2021/10/23 02:08:51;;;;;;;16.61;7.00;;;;;;;;;;361301;146;866205;-62
2021/10/23 02:09:53;;;;;;;18.29;7.71;;;;;;;;;;361263;147;858183;-61
2021/10/23 02:17:13;;;;;;;13.28;6.58;;;;;;;6.97;57.46;99523.09;374087;141;867758;-61
2021/10/23 02:18:15;;;;;;;12.85;6.43;;;;;;;6.86;57.39;99526.53;369765;144;857490;-61
2021/10/23 02:19:16;;;;;;;18.99;7.07;;;;;;;6.85;57.48;99529.96;367931;144;858162;-62
2021/10/23 02:20:19;;;;;;;14.75;7.49;;;;;;;6.85;57.65;99516.22;367227;144;864223;-61
2021/10/23 02:21:20;;;;;;;15.54;7.23;;;;;;;6.85;57.71;99522.23;367345;144;857641;-61
2021/10/23 02:22:22;;;;;;;11.76;6.05;;;;;;;6.85;57.76;99519.67;366068;144;866474;-61
2021/10/23 02:23:24;;;;;;;18.21;6.79;;;;;;;6.87;57.72;99527.38;367326;144;859068;-61
2021/10/23 02:24:26;;;;;;;18.63;7.05;;;;;;;6.88;57.78;99529.09;367103;144;866059;-61
2021/10/23 02:25:28;;;;;;;13.86;6.59;;;;;;;6.88;57.79;99531.66;368294;144;865496;-61
2021/10/23 02:26:30;;;;;;;14.33;7.24;;;;;;;6.89;57.77;99538.52;370818;144;857205;-62
2021/10/23 02:27:31;;;;;;;15.19;7.94;;;;;;;6.89;57.80;99537.69;367003;144;857101;-61
2021/10/23 02:28:33;;;;;;;14.75;6.97;;;;;;;6.87;57.84;99533.39;369116;144;864908;-61
2021/10/23 02:29:35;;;;;;;19.65;8.00;;;;;;;6.88;57.77;99541.95;366295;144;864858;-62
2021/10/23 02:30:37;;;;;;;14.31;7.33;;;;;;;6.89;57.88;99527.39;367338;144;858790;-61
2021/10/23 02:31:39;;;;;;;17.47;7.21;;;;;;;6.90;57.82;99531.67;367675;144;857162;-61
2021/10/23 02:32:40;;;;;;;14.99;7.74;;;;;;;;;;366505;144;859612;-61
2021/10/23 02:33:42;;;;;;;15.97;6.85;;;;;;;;;;366642;144;865932;-61
2021/10/23 02:34:43;;;;;;;12.02;7.36;;;;;;;;;;366998;144;865853;-61
2021/10/23 02:35:45;;;;;;;14.42;7.08;;;;;;;;;;365596;144;866263;-61
2021/10/23 02:36:47;;;;;;;16.16;6.91;;;;;;;;;;362720;147;864995;-62
2021/10/23 02:37:48;;;;;;;13.51;6.32;;;;;;;;;;365140;147;864920;-62
2021/10/23 02:38:50;;;;;;;13.63;7.30;;;;;;;;;;363341;146;866840;-62
2021/10/23 02:39:51;;;;;;;18.66;6.78;;;;;;;;;;361396;147;865932;-62
2021/10/23 02:40:53;;;;;;;14.07;6.87;;;;;;;;;;360200;147;860640;-61
2021/10/23 02:41:54;;;;;;;17.74;7.35;;;;;;;;;;364983;147;865106;-61
2021/10/23 02:42:56;;;;;;;14.58;6.44;;;;;;;;;;362120;147;865111;-61
2021/10/23 02:43:59;;;;;;;16.82;7.33;;;;;;;;;;360405;146;865021;-62
2021/10/23 02:45:00;;;;;;;12.33;6.39;;;;;;;;;;362041;147;865017;-62
2021/10/23 02:46:02;;;;;;;16.00;6.59;;;;;;;;;;362009;146;864903;-61
2021/10/23 02:47:04;;;;;;;17.26;7.30;;;;;;;;;;363427;147;865801;-61
2021/10/23 02:48:05;;;;;;;13.02;6.05;;;;;;;;;;364563;147;859018;-61
2021/10/23 02:49:07;;;;;;;19.22;6.53;;;;;;;;;;363976;146;866090;-61
2021/10/23 02:50:09;;;;;;;16.07;6.25;;;;;;;;;;356752;149;857653;-63
2021/10/23 02:51:11;;;;;;;18.48;6.14;;;;;;;;;;364407;147;857067;-62
2021/10/23 02:52:13;;;;;;;12.91;6.84;;;;;;;;;;364501;147;857157;-61
2021/10/23 02:53:14;;;;;;;12.51;6.44;;;;;;;;;;363667;146;864953;-61
2021/10/23 02:54:16;;;;;;;11.60;6.21;;;;;;;;;;365855;147;857329;-62
2021/10/23 02:55:17;;;;;;;11.05;6.03;;;;;;;;;;365858;146;866412;-62
2021/10/23 02:56:19;;;;;;;20.13;6.82;;;;;;;;;;364008;146;865583;-61
2021/10/23 02:57:21;;;;;;;13.06;6.31;;;;;;;;;;362254;147;865302;-62
2021/10/23 02:58:22;;;;;;;14.53;6.82;;;;;;;;;;364773;146;864870;-62
2021/10/23 02:59:24;;;;;;;14.44;6.63;;;;;;;;;;365068;147;857105;-61
2021/10/23 03:00:26;;;;;;;12.45;5.79;;;;;;;;;;364516;146;858320;-62
2021/10/23 03:01:28;;;;;;;20.69;6.68;;;;;;;;;;356514;149;857231;-61
2021/10/23 03:02:29;;;;;;;16.86;6.72;;;;;;;;;;364667;147;866825;-62
2021/10/23 03:03:31;;;;;;;12.41;5.96;;;;;;;;;;364974;146;865462;-61
2021/10/23 03:04:33;;;;;;;12.41;5.99;;;;;;;;;;360212;146;859005;-61
2021/10/23 03:05:34;;;;;;;11.72;5.99;;;;;;;;;;364015;147;858817;-62
2021/10/23 03:06:36;;;;;;;13.84;5.92;;;;;;;;;;362426;147;858681;-61
2021/10/23 03:07:38;;;;;;;12.95;5.78;;;;;;;;;;361773;146;857295;-62
2021/10/23 03:08:39;;;;;;;9.59;5.74;;;;;;;;;;364040;147;857472;-61
2021/10/23 03:09:41;;;;;;;11.36;5.76;;;;;;;;;;356794;150;857390;-61
2021/10/23 03:10:42;;;;;;;12.95;5.83;;;;;;;;;;364860;146;858187;-61
2021/10/23 03:11:44;;;;;;;18.48;6.42;;;;;;;;;;363238;146;860619;-61
2021/10/23 03:12:46;;;;;;;13.34;5.97;;;;;;;;;;364236;147;865157;-61
2021/10/23 03:13:47;;;;;;;13.23;6.41;;;;;;;;;;364146;145;864938;-61
2021/10/23 03:14:49;;;;;;;13.71;6.08;;;;;;;;;;365042;146;865044;-61
2021/10/23 03:15:53;;;;;;;16.76;6.21;;;;;;;;;;363184;146;866908;-61
2021/10/23 03:16:54;;;;;;;13.54;7.45;;;;;;;;;;362605;145;857264;-60
2021/10/23 03:17:55;;;;;;;13.13;5.70;;;;;;;;;;360150;147;857552;-61
2021/10/23 03:18:57;;;;;;;12.89;6.02;;;;;;;;;;359368;147;865111;-61
2021/10/23 03:19:59;;;;;;;16.58;5.99;;;;;;;;;;362770;148;865084;-61
2021/10/23 03:21:00;;;;;;;16.93;6.16;;;;;;;;;;358946;148;864985;-61
2021/10/23 03:22:02;;;;;;;15.85;6.91;;;;;;;;;;357463;147;864968;-60
2021/10/23 03:23:04;;;;;;;16.90;7.31;;;;;;;;;;362368;147;864951;-60
2021/10/23 03:24:05;;;;;;;18.49;5.94;;;;;;;;;;361186;148;859028;-61
2021/10/23 03:25:07;;;;;;;14.88;5.89;;;;;;;;;;358812;147;859550;-61
2021/10/23 03:26:09;;;;;;;12.64;5.97;;;;;;;;;;359555;147;857366;-63
2021/10/23 03:27:11;;;;;;;13.16;5.60;;;;;;;;;;359251;148;859190;-62
2021/10/23 03:28:13;;;;;;;12.05;5.96;;;;;;;;;;359664;147;857284;-61
2021/10/23 03:29:14;;;;;;;11.93;5.45;;;;;;;;;;358646;147;857279;-61
2021/10/23 03:30:16;;;;;;;11.15;5.32;;;;;;;;;;359210;147;857400;-59
2021/10/23 03:31:18;;;;;;;9.59;5.09;;;;;;;;;;361189;148;857825;-60
2021/10/23 03:32:20;;;;;;;12.21;5.89;;;;;;;;;;357602;147;865126;-59
2021/10/23 03:33:21;;;;;;;12.25;5.89;;;;;;;;;;359793;147;859102;-61
2021/10/23 03:34:23;;;;;;;13.41;5.90;;;;;;;;;;358692;147;864906;-60
2021/10/23 03:35:24;;;;;;;12.91;6.12;;;;;;;;;;358149;147;858399;-61
2021/10/23 03:36:26;;;;;;;14.59;5.87;;;;;;;;;;359180;147;858235;-61
2021/10/23 03:37:28;;;;;;;13.72;5.94;;;;;;;;;;361070;148;859823;-61
2021/10/23 03:38:30;;;;;;;12.43;5.81;;;;;;;;;;359241;148;859007;-59
2021/10/23 03:39:31;;;;;;;13.26;5.88;;;;;;;;;;360263;147;858247;-60
2021/10/23 03:40:33;;;;;;;12.59;6.85;;;;;;;;;;359947;147;857445;-59
2021/10/23 03:41:36;;;;;;;11.98;6.05;;;;;;;;;;360918;148;864937;-62
2021/10/23 03:42:38;;;;;;;11.28;5.59;;;;;;;;;;359121;147;866862;-59
2021/10/23 03:43:40;;;;;;;12.38;5.99;;;;;;;;;;361075;147;857372;-61
2021/10/23 03:44:41;;;;;;;14.69;5.55;;;;;;;;;;359888;147;860191;-59
2021/10/23 03:45:43;;;;;;;14.68;5.96;;;;;;;;;;360630;148;865643;-62
2021/10/23 03:46:45;;;;;;;13.01;5.29;;;;;;;;;;358542;147;858011;-59
2021/10/23 03:47:47;;;;;;;12.40;5.47;;;;;;;;;;359575;147;857285;-59
2021/10/23 03:48:48;;;;;;;11.61;5.37;;;;;;;;;;360828;148;865381;-60
2021/10/23 03:49:50;;;;;;;14.93;5.64;;;;;;;;;;360643;147;860063;-61
2021/10/23 03:50:51;;;;;;;12.94;5.66;;;;;;;;;;359134;147;859218;-60
2021/10/23 03:51:53;;;;;;;14.50;5.06;;;;;;;;;;359152;147;857491;-60
2021/10/23 03:52:55;;;;;;;16.46;5.33;;;;;;;;;;356373;148;857502;-60
2021/10/23 03:53:56;;;;;;;9.91;4.97;;;;;;;;;;359097;148;858381;-63
2021/10/23 03:54:58;;;;;;;10.94;4.72;;;;;;;;;;359701;147;857241;-64
2021/10/23 03:56:01;;;;;;;9.54;4.36;;;;;;;;;;360466;147;866687;-66
2021/10/23 03:57:04;;;;;;;12.74;4.89;;;;;;;;;;358518;147;865739;-67
2021/10/23 03:58:05;;;;;;;10.50;4.66;;;;;;;;;;359685;147;859896;-66
2021/10/23 03:59:07;;;;;;;13.21;4.86;;;;;;;;;;360692;147;859493;-66
2021/10/23 04:00:09;;;;;;;12.43;5.09;;;;;;;;;;358786;147;859440;-63
2021/10/23 04:01:11;;;;;;;14.15;4.40;;;;;;;;;;359539;147;857311;-66
2021/10/23 04:02:12;;;;;;;9.79;4.51;;;;;;;;;;359275;147;857157;-66
2021/10/23 04:03:14;;;;;;;8.57;4.67;;;;;;;;;;357797;148;866716;-66
2021/10/23 04:04:16;;;;;;;10.09;4.51;;;;;;;;;;356180;147;867048;-64
2021/10/23 04:05:18;;;;;;;9.71;4.32;;;;;;;;;;359549;147;866824;-66
2021/10/23 04:06:21;;;;;;;13.06;5.29;;;;;;;;;;360285;147;865895;-67
2021/10/23 04:07:22;;;;;;;15.94;6.06;;;;;;;;;;361372;148;857254;-62
2021/10/23 04:08:24;;;;;;;9.74;4.21;;;;;;;;;;358604;147;864918;-69
2021/10/23 04:09:25;;;;;;;9.49;4.17;;;;;;;;;;350276;151;857437;-64
2021/10/23 04:10:27;;;;;;;13.33;4.94;;;;;;;;;;351403;151;858465;-63
2021/10/23 04:11:29;;;;;;;16.76;5.22;;;;;;;;;;352707;151;866740;-67
2021/10/23 04:12:31;;;;;;;10.59;4.91;;;;;;;;;;353537;151;865636;-67
2021/10/23 04:13:33;;;;;;;8.37;4.03;;;;;;;;;;349607;150;865548;-65
2021/10/23 04:14:34;;;;;;;10.64;4.24;;;;;;;;;;347868;152;858169;-65
2021/10/23 04:15:36;;;;;;;11.51;4.15;;;;;;;;;;352589;150;859696;-65
2021/10/23 04:16:37;;;;;;;8.52;4.21;;;;;;;;;;350951;152;859937;-60
2021/10/23 04:17:39;;;;;;;11.42;4.05;;;;;;;;;;351596;150;866502;-66
2021/10/23 04:18:40;;;;;;;10.89;4.39;;;;;;;;;;362730;147;866304;-65
2021/10/23 04:19:42;;;;;;;10.69;4.49;;;;;;;;;;363217;146;865635;-70
2021/10/23 04:20:44;;;;;;;10.41;4.79;;;;;;;;;;363393;146;857856;-64
2021/10/23 04:21:46;;;;;;;10.12;4.71;;;;;;;;;;365801;147;864886;-64
2021/10/23 04:22:47;;;;;;;10.42;4.63;;;;;;;;;;364369;147;857331;-65
2021/10/23 04:23:49;;;;;;;11.30;4.74;;;;;;;;;;364921;146;864993;-65
2021/10/23 04:24:53;;;;;;;11.56;4.44;;;;;;;;;;362826;147;857486;-65
2021/10/23 04:38:03;;;;;;;13.84;4.94;;;;;;;7.47;51.70;99566.86;373811;141;874640;-63
2021/10/23 04:39:05;;;;;;;11.95;4.95;;;;;;;7.37;51.82;99574.57;368157;144;857158;-66
2021/10/23 04:40:07;;;;;;;14.77;4.69;;;;;;;7.38;51.85;99578.02;369283;144;858366;-66
2021/10/23 04:41:09;;;;;;;13.77;5.12;;;;;;;7.38;51.83;99572.87;368278;144;857251;-67
2021/10/23 04:42:11;;;;;;;11.39;5.23;;;;;;;7.38;51.81;99575.45;367476;144;859845;-61
2021/10/23 04:43:13;;;;;;;10.57;4.68;;;;;;;7.39;51.76;99569.44;366306;144;857221;-64
2021/10/23 04:44:14;;;;;;;11.66;4.79;;;;;;;7.39;51.46;99574.58;368275;144;864893;-63
2021/10/23 04:45:16;;;;;;;12.59;4.08;;;;;;;7.40;51.60;99573.72;367597;144;865076;-61
2021/10/23 04:46:18;;;;;;;11.93;4.53;;;;;;;7.41;51.70;99571.12;365870;144;867512;-62
2021/10/23 04:47:20;;;;;;;9.80;4.82;;;;;;;7.42;51.54;99577.16;368281;144;857303;-63
2021/10/23 04:48:22;;;;;;;11.66;4.98;;;;;;;;;;368151;144;856131;-62
2021/10/23 04:49:23;;;;;;;14.11;4.86;;;;;;;;;;367338;144;863897;-62
2021/10/23 04:50:26;;;;;;;14.29;5.19;;;;;;;;;;367118;144;863864;-62
2021/10/23 04:51:28;;;;;;;9.61;4.51;;;;;;;;;;367343;144;856225;-60
2021/10/23 04:52:30;;;;;;;9.55;5.11;;;;;;;;;;366724;144;856163;-61
2021/10/23 04:53:31;;;;;;;12.16;5.04;;;;;;;;;;367852;144;856107;-60
2021/10/23 04:54:33;;;;;;;16.04;4.69;;;;;;;;;;367941;144;856701;-61
2021/10/23 04:55:34;;;;;;;9.77;4.89;;;;;;;;;;362330;144;857540;-62
2021/10/23 04:56:36;;;;;;;10.69;5.06;;;;;;;;;;360909;146;857618;-62
2021/10/23 04:57:38;;;;;;;10.34;4.86;;;;;;;;;;362001;147;856159;-62
2021/10/23 04:58:39;;;;;;;11.29;5.10;;;;;;;;;;361382;146;859405;-64
2021/10/23 04:59:41;;;;;;;13.54;5.02;;;;;;;;;;360937;146;856120;-61
2021/10/23 05:00:42;;;;;;;11.82;5.04;;;;;;;;;;362230;146;857173;-61
2021/10/23 05:01:44;;;;;;;11.01;5.04;;;;;;;;;;360577;147;863711;-61
2021/10/23 05:02:46;;;;;;;11.59;4.63;;;;;;;;;;361663;147;863789;-64
2021/10/23 05:03:47;;;;;;;9.86;4.29;;;;;;;;;;360420;146;856347;-63
2021/10/23 05:04:49;;;;;;;12.66;4.41;;;;;;;;;;361077;147;856232;-62
2021/10/23 05:05:50;;;;;;;8.90;4.71;;;;;;;;;;361320;147;863990;-63
2021/10/23 05:06:52;;;;;;;10.69;4.75;;;;;;;;;;362591;146;863867;-63
2021/10/23 05:07:54;;;;;;;10.90;4.74;;;;;;;;;;361920;147;864076;-63
2021/10/23 05:08:55;;;;;;;12.76;5.00;;;;;;;;;;362150;147;864630;-62
2021/10/23 05:09:57;;;;;;;10.10;5.50;;;;;;;;;;360871;146;863894;-63
2021/10/23 05:10:58;;;;;;;11.77;5.14;;;;;;;;;;362560;146;856384;-62
2021/10/23 05:12:00;;;;;;;10.06;4.95;;;;;;;;;;361839;147;856223;-63
2021/10/23 05:13:01;;;;;;;11.00;5.41;;;;;;;;;;362575;147;856474;-63
2021/10/23 05:14:03;;;;;;;10.64;5.21;;;;;;;;;;361953;146;864068;-63
2021/10/23 05:15:05;;;;;;;8.83;4.60;;;;;;;;;;363385;147;863827;-62
2021/10/23 05:16:08;;;;;;;10.61;4.73;;;;;;;;;;364531;147;858659;-62
2021/10/23 05:17:09;;;;;;;11.06;4.84;;;;;;;;;;361790;146;856167;-62
2021/10/23 05:18:11;;;;;;;10.40;4.91;;;;;;;;;;361775;146;863967;-62
2021/10/23 05:19:13;;;;;;;12.21;4.67;;;;;;;;;;356202;150;863880;-63
2021/10/23 05:20:15;;;;;;;9.37;4.17;;;;;;;;;;349528;151;864369;-63
2021/10/23 05:21:17;;;;;;;12.56;4.58;;;;;;;;;;360468;146;863898;-62
2021/10/23 05:22:19;;;;;;;14.52;5.19;;;;;;;;;;360560;147;863850;-63
2021/10/23 05:23:20;;;;;;;8.99;4.87;;;;;;;;;;361536;147;857199;-62
2021/10/23 05:24:22;;;;;;;13.51;4.82;;;;;;;;;;363450;146;856750;-62
2021/10/23 05:25:23;;;;;;;9.95;5.00;;;;;;;;;;360374;147;856054;-61
2021/10/23 05:26:25;;;;;;;9.04;4.69;;;;;;;;;;362077;147;863820;-62
2021/10/23 05:27:27;;;;;;;11.01;4.57;;;;;;;;;;353735;150;856331;-63
2021/10/23 05:28:29;;;;;;;11.05;4.46;;;;;;;;;;361844;146;863759;-62
2021/10/23 05:29:30;;;;;;;11.11;5.01;;;;;;;;;;361325;147;863789;-63
2021/10/23 05:30:32;;;;;;;11.70;4.83;;;;;;;;;;359489;147;856005;-63
2021/10/23 05:31:33;;;;;;;12.72;4.87;;;;;;;;;;362999;146;863815;-63
2021/10/23 05:32:35;;;;;;;12.34;4.34;;;;;;;;;;362920;146;856103;-63
2021/10/23 05:33:36;;;;;;;18.29;5.89;;;;;;;;;;359566;147;856458;-61
2021/10/23 05:34:38;;;;;;;10.66;4.69;;;;;;;;;;361514;146;858760;-63
2021/10/23 05:35:40;;;;;;;11.54;4.47;;;;;;;;;;360595;146;857388;-63
2021/10/23 05:36:41;;;;;;;12.78;4.89;;;;;;;;;;360850;147;865050;-63
2021/10/23 05:37:44;;;;;;;12.76;4.61;;;;;;;;;;362255;147;864866;-63
2021/10/23 05:38:45;;;;;;;9.59;4.53;;;;;;;;;;361463;146;864896;-62
2021/10/23 05:39:47;;;;;;;12.27;4.04;;;;;;;;;;361546;146;859010;-62
2021/10/23 05:40:48;;;;;;;8.50;4.40;;;;;;;;;;361429;147;856567;-61
2021/10/23 05:41:50;;;;;;;10.31;4.94;;;;;;;;;;360415;147;863783;-63
2021/10/23 05:42:51;;;;;;;13.03;4.92;;;;;;;;;;361036;146;857608;-63
2021/10/23 05:43:53;;;;;;;10.12;4.83;;;;;;;;;;363811;147;863984;-62
2021/10/23 05:44:55;;;;;;;10.33;3.78;;;;;;;;;;359593;147;864055;-63
2021/10/23 05:45:56;;;;;;;10.60;5.72;;;;;;;;;;361274;146;863837;-62
2021/10/23 05:46:58;;;;;;;14.00;4.11;;;;;;;;;;361939;146;856175;-63
2021/10/23 05:47:59;;;;;;;14.02;4.11;;;;;;;;;;363966;147;856818;-63
2021/10/23 05:49:01;;;;;;;9.54;4.16;;;;;;;;;;361591;146;863864;-62
2021/10/23 05:50:03;;;;;;;16.04;4.66;;;;;;;;;;361431;146;856144;-63
2021/10/23 05:51:04;;;;;;;10.33;4.57;;;;;;;;;;359573;147;856053;-62
2021/10/23 05:52:06;;;;;;;9.01;3.90;;;;;;;;;;360067;147;856051;-63
2021/10/23 05:53:07;;;;;;;11.89;3.49;;;;;;;;;;360075;146;856653;-62
2021/10/23 05:54:09;;;;;;;10.65;4.56;;;;;;;;;;365368;147;856124;-63
2021/10/23 05:55:10;;;;;;;11.12;4.43;;;;;;;;;;360721;147;856842;-62
2021/10/23 05:56:14;;;;;;;9.21;4.07;;;;;;;;;;361546;147;856358;-62
2021/10/23 05:57:15;;;;;;;9.41;4.29;;;;;;;;;;360153;146;856896;-62
2021/10/23 05:58:17;;;;;;;11.88;3.82;;;;;;;;;;361330;146;857704;-62
2021/10/23 05:59:21;;;;;;;9.85;4.17;;;;;;;;;;363689;147;856433;-61
2021/10/23 06:00:23;;;;;;;11.76;4.67;;;;;;;;;;360581;147;864423;-62
2021/10/23 06:01:24;;;;;;;9.99;3.86;;;;;;;;;;360580;146;856070;-63
2021/10/23 06:02:31;;;;;;;8.76;3.16;;;;;;;;;;361059;147;856382;-63
2021/10/23 06:03:34;;;;;;;9.23;3.36;;;;;;;;;;363520;147;863687;-63
2021/10/23 06:04:36;;;;;;;9.11;4.01;;;;;;;;;;361026;146;856595;-63
2021/10/23 06:05:38;;;;;;;11.19;4.15;;;;;;;;;;362071;147;864249;-62
2021/10/23 06:06:40;;;;;;;8.89;3.86;;;;;;;;;;360156;147;856356;-63
2021/10/23 06:07:42;;;;;;;14.92;4.11;;;;;;;;;;360642;147;857344;-62
2021/10/23 06:08:43;;;;;;;9.70;4.70;;;;;;;;;;362616;146;863724;-63
2021/10/23 06:09:45;;;;;;;12.11;3.86;;;;;;;;;;361409;147;856477;-62
2021/10/23 06:10:46;;;;;;;10.59;4.14;;;;;;;;;;361424;147;856325;-62
2021/10/23 06:11:48;;;;;;;11.71;4.20;;;;;;;;;;362072;146;856429;-63
2021/10/23 06:12:49;;;;;;;9.37;3.42;;;;;;;;;;361253;147;856162;-62